KFNT

Bishop International Airport

Flint, Michigan, USA
KFNT 192320Z 2000/2024 07005KT P6SM SCT035 BKN250 FM201000 12003KT 3SM BR SCT015 FM201300 14005KT 3SM -SHRA BR OVC015 FM201800 12010KT P6SM BKN030
Issued Valid From Valid To
Sep-19 @ 23:20 UTC
(an hour ago)
Sep-20 @ 00:00 UTC
(41 minutes ago)
Sep-21 @ 00:00 UTC
(in 23 hours)
Sep-20 @ 00:00 to Sep-20 @ 10:00
KFNT 192320Z 2000/2024 07005KT P6SM SCT035 BKN250
Wind Visibility Clouds
70° at 5 knots Greater than 6 miles
  • Scattered at 3,500' AGL
  • Broken at 25,000' AGL
From Sep-20 @ 10:00 to Sep-20 @ 13:00
FM201000 12003KT 3SM BR SCT015
Wind Visibility Clouds Conditions
120° at 3 knots 3 miles
  • Scattered at 1,500' AGL
  • Mist
From Sep-20 @ 13:00 to Sep-20 @ 18:00
FM201300 14005KT 3SM -SHRA BR OVC015
Wind Visibility Clouds Conditions
140° at 5 knots 3 miles
  • Overcast at 1,500' AGL
  • Light Rain
  • Mist
From Sep-20 @ 18:00 to Sep-21 @ 00:00
FM201800 12010KT P6SM BKN030
Wind Visibility Clouds
120° at 10 knots Greater than 6 miles
  • Broken at 3,000' AGL
KFNT 192320Z 2000/2024 07005KT P6SM SCT035 BKN250 FM201000 12003KT 3SM BR SCT015 FM201300 14005KT 3SM -SHRA BR OVC015 FM201800 12010KT P6SM BKN030
Issued Sep-19 @ 23:20 UTC
(an hour ago)
Valid From Sep-20 @ 00:00 UTC
(41 minutes ago)
Valid To Sep-21 @ 00:00 UTC
(in 23 hours)
Sep-20 @ 00:00 - Sep-20 @ 10:00
Wind Visibility
70° at 5 knots Greater than 6 miles
Clouds
  • Scattered at 3,500' AGL
  • Broken at 25,000' AGL
From Sep-20 @ 10:00 - Sep-20 @ 13:00
Wind Visibility
120° at 3 knots 3 miles
Clouds
  • Scattered at 1,500' AGL
Conditions
  • Mist
From Sep-20 @ 13:00 - Sep-20 @ 18:00
Wind Visibility
140° at 5 knots 3 miles
Clouds
  • Overcast at 1,500' AGL
Conditions
  • Light Rain
  • Mist
From Sep-20 @ 18:00 - Sep-21 @ 00:00
Wind Visibility
120° at 10 knots Greater than 6 miles
Clouds
  • Broken at 3,000' AGL